»·PEaware :: N796TM KVCV-KHHR

N796TM :: KVCV-KHHR

FLIGHT INFORMATION

Flight Status: Arrived
Operator: Privately registered:
United States
More flights under this callsign
Pilot: Thomas J. (32264)
Aircraft: SOCATA TBM-850
(TBM8)
More flights by this aircraft type
Origin: KVCV Socal Logistics
United States
Destination: KHHR Northrop/Hawthorne Mun
United States
More flights between these airports :: More routes between these airports
Route: +APLES V442 PDZ POWUP HHR RWY25 LOC
File this flight plan on PilotEdge
Remarks:
Altitude:
(Current/Filed)
8,000ft
Speed:
(Current/Filed)
150kts
Departed: 20-Nov-20 01:39 PM
Arrived: 20-Nov-20 02:10 PM
Distance/Time
Traveled:
62nm/0:31
Distance/Time
To Go:
Arrived

Flight Plot

Page will automatically refresh every two minutes.

Flight plan parsing failed; only flown route is shown


Map Options




Map Legend


Flown Route
Filed Route
Departure Airport
Arrival Airport
Navaid (VOR, NDB)
Fix

Horizontal Profiles

Position Reports

Time Latitude Longitude Heading Altitude Ground
Speed
20-Nov-20 13:04 34.588334 -117.376342 314 2874ft 0kts
20-Nov-20 13:05 34.588334 -117.376342 314 2874ft 0kts
20-Nov-20 13:06 34.588334 -117.376342 314 2874ft 0kts
20-Nov-20 13:07 34.588334 -117.376342 314 2874ft 0kts
20-Nov-20 13:08 34.588334 -117.376342 314 2874ft 0kts
20-Nov-20 13:09 34.588334 -117.376342 314 2874ft 0kts
20-Nov-20 13:10 34.588333 -117.376342 313 2874ft 0kts
20-Nov-20 13:12 34.588333 -117.376342 313 2874ft 0kts
20-Nov-20 13:13 34.588333 -117.376342 313 2874ft 0kts
20-Nov-20 13:14 34.588333 -117.376342 313 2874ft 0kts
20-Nov-20 13:15 34.588333 -117.376342 313 2874ft 0kts
20-Nov-20 13:16 34.588333 -117.376342 313 2874ft 0kts
20-Nov-20 13:17 34.588333 -117.376342 313 2874ft 0kts
20-Nov-20 13:18 34.588333 -117.376342 313 2874ft 0kts
20-Nov-20 13:19 34.588333 -117.376342 313 2874ft 0kts
20-Nov-20 13:20 34.588333 -117.376342 313 2874ft 0kts
20-Nov-20 13:21 34.588333 -117.376342 313 2874ft 0kts
20-Nov-20 13:22 34.588333 -117.376342 313 2874ft 0kts
20-Nov-20 13:23 34.588333 -117.376342 313 2874ft 0kts
20-Nov-20 13:24 34.588333 -117.376342 313 2874ft 0kts
20-Nov-20 13:25 34.588333 -117.376342 313 2874ft 0kts
20-Nov-20 13:26 34.588333 -117.376341 313 2875ft 0kts
20-Nov-20 13:27 34.588333 -117.376341 313 2875ft 0kts
20-Nov-20 13:27 34.588333 -117.376341 313 2875ft 0kts
20-Nov-20 13:29 34.588333 -117.376341 313 2875ft 0kts
20-Nov-20 13:29 34.588333 -117.376341 313 2875ft 0kts
20-Nov-20 13:31 34.588333 -117.376341 313 2875ft 0kts
20-Nov-20 13:31 34.588333 -117.376341 313 2875ft 0kts
20-Nov-20 13:32 34.588388 -117.376430 307 2875ft 5kts
20-Nov-20 13:33 34.590209 -117.375910 34 2871ft 20kts
20-Nov-20 13:34 34.593265 -117.371324 89 2866ft 13kts
20-Nov-20 13:35 34.593851 -117.367832 13 2864ft 10kts
20-Nov-20 13:36 34.597366 -117.367042 12 2855ft 14kts
20-Nov-20 13:37 34.599398 -117.366623 356 2852ft 13kts
20-Nov-20 13:38 34.587689 -117.382109 226 3203ft 123kts
20-Nov-20 13:39 34.578404 -117.423054 263 3944ft 141kts
20-Nov-20 13:40 34.572701 -117.474035 262 5002ft 153kts
20-Nov-20 13:41 34.566709 -117.524216 262 6395ft 149kts
20-Nov-20 13:42 34.561146 -117.573295 262 7786ft 145kts
20-Nov-20 13:43 34.556100 -117.621305 262 9182ft 140kts
20-Nov-20 13:44 34.551691 -117.667152 261 10562ft 136kts
20-Nov-20 13:45 34.545858 -117.710832 224 11954ft 128kts
20-Nov-20 13:46 34.505058 -117.720114 190 12020ft 164kts
20-Nov-20 13:47 34.457562 -117.730491 192 11992ft 175kts
20-Nov-20 13:48 34.410258 -117.741618 192 11976ft 171kts
20-Nov-20 13:49 34.363125 -117.752838 192 11957ft 172kts
20-Nov-20 13:50 34.316140 -117.764028 192 12053ft 167kts
20-Nov-20 13:51 34.270534 -117.774864 192 12040ft 168kts
20-Nov-20 13:52 34.224181 -117.785869 192 12032ft 169kts
20-Nov-20 13:53 34.177367 -117.796991 192 12033ft 173kts
20-Nov-20 13:54 34.129768 -117.808251 192 12033ft 174kts
20-Nov-20 13:55 34.084310 -117.818909 193 11110ft 163kts
20-Nov-20 13:56 34.037938 -117.829882 193 9414ft 175kts
20-Nov-20 13:57 33.988732 -117.841522 192 6799ft 189kts
20-Nov-20 13:58 33.946667 -117.868531 256 3578ft 183kts
20-Nov-20 13:59 33.941756 -117.923841 267 2890ft 162kts
20-Nov-20 14:00 33.939402 -117.976738 267 2701ft 151kts
20-Nov-20 14:01 33.937194 -118.026155 267 2691ft 141kts
20-Nov-20 14:02 33.935102 -118.072633 267 2683ft 136kts
20-Nov-20 14:03 33.932902 -118.121226 267 2173ft 153kts
20-Nov-20 14:04 33.930502 -118.172828 267 1484ft 147kts
20-Nov-20 14:05 33.928442 -118.217027 267 1490ft 123kts
20-Nov-20 14:06 33.926538 -118.257822 267 1492ft 117kts
20-Nov-20 14:07 33.924645 -118.289293 273 1083ft 68kts
20-Nov-20 14:08 33.923902 -118.312196 267 347ft 67kts
20-Nov-20 14:09 33.922977 -118.332288 277 66ft 20kts
20-Nov-20 14:10 33.922450 -118.333759 86 67ft 9kts
20-Nov-20 14:11 33.922155 -118.330169 4 65ft 2kts

Navigation Log

Ident Type
Flight plan parsing failed, navigation log unavailable